Terminal Aerodrome Forecast
Issued by NWS

Current Version | Previous Version | Text Only | Print | Product List | Glossary On
Versions: 1 2 3 4 5 6 7 8 9 10 11 12 13 14 15 16
000
FTPA31 PHFO 280007 RRA
TAFHTO
TAF
PHTO 280007Z 2800/2824 03008KT P6SM -SHRA SCT030 BKN060
     FM280600 30005KT P6SM -SHRA BKN025 OVC050
     FM281000 24005KT P6SM VCSH SCT025 BKN050
     FM282200 03011KT P6SM VCSH FEW025 SCT050 BKN100=

USA.gov is the U.S. government's official web portal to all federal, state and local government web resources and services.